Latest Coastal Weather Observations for Evans Head

IDN60701

Issued at 12:41 am EST Wednesday 23 August 2017 (issued every 10 minutes, with the page automatically refreshed every 10 minutes)

About coastal observations | Map of coastal stations | Coastal observations for NSW | Marine services | Other Formats
Station Details ID: 058212 Name: EVANS HEAD RAAF BOMBING RANGE AWS Lat: -29.18 Lon: 153.40 Height: 62.5 m
Data from the previous 72 hours. | See also: Recent months at Evans Head
Date/Time
EST
Temp
°C
Wind Pressure Rain since
9am
mm
Weather Cloud Vis
km
Sea
Height
m
Swell
Dir  Spd
kts
Gust
kts
hPa Trend Height
m
Period
s
Dir
23/12:30am - SW 6 8 1019.6 - 0.0 - - - - - - -
23/12:00am - W 6 9 1020.1 - 0.0 - - - - - - -
 
Date/Time
EST
Temp
°C
Wind Pressure Rain since
9am
mm
Weather Cloud Vis
km
Sea
Height
m
Swell
Dir  Spd
kts
Gust
kts
hPa Trend Height
m
Period
s
Dir
22/11:30pm - SW 7 11 1020.1 - 0.0 - - - - - - -
22/11:00pm - SW 7 12 1020.1 - 0.0 - - - - - - -
22/10:30pm - SSW 7 9 1020.0 - 0.0 - - - - - - -
22/10:00pm - SSW 9 13 1019.8 - 0.0 - - - - - - -
22/09:30pm - S 8 12 1019.8 - 0.0 - - - - - - -
22/09:00pm - S 9 14 1019.6 - 0.0 - - - - - - -
22/08:30pm - S 11 15 1019.4 - 0.0 - - - - - - -
22/08:00pm - S 12 15 1019.1 - 0.0 - - - - - - -
22/07:30pm - S 13 17 1018.8 - 0.0 - - - - - - -
22/07:00pm - S 11 16 1018.3 - 0.0 - - - - - - -
22/06:30pm - SSE 13 17 1017.9 - 0.0 - - - - - - -
22/06:00pm - SE 9 12 1017.5 - 0.0 - - - - - - -
22/05:30pm - SE 9 12 1017.1 - 0.0 - - - - - - -
22/05:00pm - SE 8 12 1016.7 - 0.0 - - - - - - -
22/04:30pm - SE 10 13 1016.2 - 0.0 - - - - - - -
22/04:00pm - ESE 9 12 1015.9 - 0.0 - - - - - - -
22/03:30pm - E 9 12 1015.6 - 0.0 - - - - - - -
22/03:00pm - ESE 10 13 1015.4 - 0.0 - - - - - - -
22/02:30pm - ESE 7 10 1015.3 - 0.0 - - - - - - -
22/02:00pm - ESE 9 13 1015.3 - 0.0 - - - - - - -
22/01:30pm - N 6 13 1015.4 - 0.0 - - - - - - -
22/01:00pm - N 8 12 1015.5 - 0.0 - - - - - - -
22/12:30pm - N 9 15 1015.8 - 0.0 - - - - - - -
22/12:00pm - N 8 15 1016.4 - 0.0 - - - - - - -
22/11:30am - N 7 18 1017.1 - 0.0 - - - - - - -
22/11:00am - NNW 10 21 1017.3 - 0.0 - - - - - - -
22/10:30am - NNW 12 21 1017.8 - 0.0 - - - - - - -
22/10:00am - NNW 10 18 1018.2 - 0.0 - - - - - - -
22/09:30am - N 8 12 1018.3 - 0.0 - - - - - - -
22/09:00am - N 7 10 1018.6 - 0.0 - - - - - - -
22/08:30am - N 3 6 1018.7 - 0.0 - - - - - - -
22/08:00am - NNW 4 5 1018.8 - 0.0 - - - - - - -
22/07:30am - NW 5 6 1018.5 - 0.0 - - - - - - -
22/07:00am - N 4 5 1018.2 - 0.0 - - - - - - -
22/06:30am - N 5 6 1018.1 - 0.0 - - - - - - -
22/06:00am - N 4 5 1017.7 - 0.0 - - - - - - -
22/05:30am - N 5 6 1017.6 - 0.0 - - - - - - -
22/05:00am - N 2 4 1017.6 - 0.0 - - - - - - -
22/04:30am - N 1 4 1017.3 - 0.0 - - - - - - -
22/04:00am - N 2 4 1017.2 - 0.0 - - - - - - -
22/03:30am - N 4 6 1017.0 - 0.0 - - - - - - -
22/03:00am - N 5 7 1016.8 - 0.0 - - - - - - -
22/02:30am - N 5 7 1017.0 - 0.0 - - - - - - -
22/02:00am - N 5 6 1017.4 - 0.0 - - - - - - -
22/01:30am - N 5 7 1017.5 - 0.0 - - - - - - -
22/01:00am - N 5 7 1017.7 - 0.0 - - - - - - -
22/12:30am - N 5 7 1018.1 - 0.0 - - - - - - -
22/12:00am - N 6 9 1018.2 - 0.0 - - - - - - -
 
Date/Time
EST
Temp
°C
Wind Pressure Rain since
9am
mm
Weather Cloud Vis
km
Sea
Height
m
Swell
Dir  Spd
kts
Gust
kts
hPa Trend Height
m
Period
s
Dir
21/11:30pm - N 6 9 1018.3 - 0.0 - - - - - - -
21/11:00pm - N 6 9 1018.5 - 0.0 - - - - - - -
21/10:30pm - N 7 9 1018.7 - 0.0 - - - - - - -
21/10:00pm - N 7 9 1018.5 - 0.0 - - - - - - -
21/09:30pm - NE 7 9 1018.3 - 0.0 - - - - - - -
21/09:00pm - N 7 10 1018.6 - 0.0 - - - - - - -
21/08:30pm - N 10 14 1018.1 - 0.0 - - - - - - -
21/08:00pm - N 9 13 1018.2 - 0.0 - - - - - - -
21/07:30pm - N 8 12 1018.7 - 0.0 - - - - - - -
21/07:00pm - N 8 12 1018.2 - 0.0 - - - - - - -
21/06:30pm - NNE 7 10 1018.0 - 0.0 - - - - - - -
21/06:00pm - NNE 9 12 1017.7 - 0.0 - - - - - - -
21/05:30pm - NNE 10 16 1017.5 - 0.0 - - - - - - -
21/05:00pm - NNE 8 12 1017.8 - 0.0 - - - - - - -
21/04:30pm - NNE 9 16 1017.4 - 0.0 - - - - - - -
21/04:00pm - NE 8 13 1017.3 - 0.0 - - - - - - -
21/03:30pm - NE 7 11 1017.3 - 0.0 - - - - - - -
21/03:00pm - NE 6 10 1017.4 - 0.0 - - - - - - -
21/02:30pm - NE 7 11 1017.6 - 0.0 - - - - - - -
21/02:00pm - ENE 9 12 1017.9 - 0.0 - - - - - - -
21/01:30pm - E 7 10 1018.6 - 0.0 - - - - - - -
21/01:00pm - ENE 6 9 1019.0 - 0.0 - - - - - - -
21/12:30pm - W 4 7 1019.5 - 0.0 - - - - - - -
21/12:00pm - WSW 5 9 1020.4 - 0.0 - - - - - - -
21/11:30am - W 5 7 1021.0 - 0.0 - - - - - - -
21/11:00am - WNW 5 7 1021.2 - 0.0 - - - - - - -
21/10:30am - WNW 5 8 1021.6 - 0.0 - - - - - - -
21/10:00am - W 5 8 1021.5 - 0.0 - - - - - - -
21/09:30am - W 5 8 1021.8 - 0.0 - - - - - - -
21/09:00am - WNW 6 8 1021.9 - 0.0 - - - - - - -
21/08:30am - WNW 6 8 1021.6 - 0.0 - - - - - - -
21/08:00am - WNW 6 8 1021.3 - 0.0 - - - - - - -
21/07:30am - W 5 8 1020.9 - 0.0 - - - - - - -
21/07:00am - W 7 9 1020.8 - 0.0 - - - - - - -
21/06:30am - W 8 9 1020.8 - 0.0 - - - - - - -
21/06:00am - WNW 7 10 1020.7 - 0.0 - - - - - - -
21/05:30am - W 7 9 1020.2 - 0.0 - - - - - - -
21/05:00am - WSW 8 10 1019.7 - 0.0 - - - - - - -
21/04:30am - W 8 10 1019.5 - 0.0 - - - - - - -
21/04:00am - W 8 9 1019.6 - 0.0 - - - - - - -
21/03:30am - W 7 9 1019.6 - 0.0 - - - - - - -
21/03:00am - W 8 10 1019.9 - 0.0 - - - - - - -
21/02:30am - W 8 10 1019.8 - 0.0 - - - - - - -
21/02:00am - W 8 11 1019.8 - 0.0 - - - - - - -
21/01:30am - W 7 8 1020.1 - 0.0 - - - - - - -
21/01:00am - W 8 9 1020.1 - 0.0 - - - - - - -
21/12:30am - W 7 11 1020.5 - 0.0 - - - - - - -
21/12:00am - SW 8 11 1020.6 - 0.0 - - - - - - -
 
Date/Time
EST
Temp
°C
Wind Pressure Rain since
9am
mm
Weather Cloud Vis
km
Sea
Height
m
Swell
Dir  Spd
kts
Gust
kts
hPa Trend Height
m
Period
s
Dir
20/11:30pm - SW 9 12 1020.7 - 0.0 - - - - - - -
20/11:00pm - SW 10 12 1021.0 - 0.0 - - - - - - -
20/10:30pm - SW 10 13 1020.9 - 0.0 - - - - - - -
20/10:00pm - SSW 11 15 1020.6 - 0.0 - - - - - - -
20/09:30pm - SSW 12 16 1020.5 - 0.0 - - - - - - -
20/09:00pm - SSW 11 17 1020.5 - 0.0 - - - - - - -
20/08:30pm - SW 12 18 1020.4 - 0.0 - - - - - - -
20/08:00pm - SSW 14 19 1020.1 - 0.0 - - - - - - -
20/07:30pm - SSW 12 16 1020.2 - 0.0 - - - - - - -
20/07:00pm - SSW 11 14 1020.0 - 0.0 - - - - - - -
20/06:30pm - SSW 15 22 1019.7 - 0.0 - - - - - - -
20/06:00pm - SSW 14 22 1019.6 - 0.0 - - - - - - -
20/05:30pm - S 17 24 1019.1 - 0.0 - - - - - - -
20/05:00pm - SSW 18 27 1018.8 - 0.0 - - - - - - -
20/04:49pm - SSW 21 31 1018.7 - 0.0 - - - - - - -
20/04:30pm - S 21 28 1018.5 - 0.0 - - - - - - -
20/04:00pm - S 22 33 1018.1 - 0.0 - - - - - - -
20/03:30pm - S 25 35 1018.0 - 0.0 - - - - - - -
20/03:00pm - S 22 33 1017.9 - 0.0 - - - - - - -
20/02:30pm - S 22 33 1017.9 - 0.0 - - - - - - -
20/02:04pm - S 20 30 1017.9 - 0.0 - - - - - - -
20/02:00pm - S 19 28 1017.9 - 0.0 - - - - - - -
20/01:38pm - S 21 31 1018.0 - 0.0 - - - - - - -
20/01:30pm - S 23 31 1018.1 - 0.0 - - - - - - -
20/01:00pm - S 22 32 1018.5 - 0.0 - - - - - - -
20/12:37pm - S 22 33 1018.6 - 0.0 - - - - - - -
20/12:30pm - S 23 31 1018.8 - 0.0 - - - - - - -
20/12:00pm - S 20 32 1019.1 - 0.0 - - - - - - -
20/11:35am - SSW 16 27 1019.6 - 0.0 - - - - - - -
20/11:30am - SSW 15 23 1019.7 - 0.0 - - - - - - -
20/11:00am - SSW 13 18 1020.2 - 0.0 - - - - - - -
20/10:38am - SSW 16 26 1020.3 - 0.0 - - - - - - -
20/10:30am - SSW 17 25 1020.3 - 0.0 - - - - - - -
20/10:00am - SSW 14 20 1020.5 - 0.0 - - - - - - -
20/09:30am - SW 15 27 1020.5 - 0.0 - - - - - - -
20/09:27am - SW 15 27 1020.4 - 0.0 - - - - - - -
20/09:00am - SW 12 17 1020.7 - 0.0 - - - - - - -
20/08:30am - WSW 10 16 1020.5 - 0.0 - - - - - - -
20/08:00am - WSW 11 15 1020.2 - 0.0 - - - - - - -
20/07:30am - WSW 9 12 1019.9 - 0.0 - - - - - - -
20/07:00am - WSW 8 11 1019.6 - 0.0 - - - - - - -
20/06:30am - WSW 9 12 1019.3 - 0.0 - - - - - - -
20/06:00am - WSW 10 13 1018.8 - 0.0 - - - - - - -
20/05:30am - WSW 11 14 1018.4 - 0.0 - - - - - - -
20/05:00am - WSW 11 15 1018.2 - 0.0 - - - - - - -
20/04:30am - SW 11 14 1018.0 - 0.0 - - - - - - -
20/04:00am - WSW 11 14 1017.6 - 0.0 - - - - - - -
20/03:30am - WSW 10 13 1017.5 - 0.0 - - - - - - -
20/03:00am - WSW 11 15 1017.3 - 0.0 - - - - - - -
20/02:30am - SW 11 13 1017.3 - 0.0 - - - - - - -
20/02:00am - WSW 11 14 1017.5 - 0.0 - - - - - - -
20/01:30am - SW 10 14 1017.6 - 0.0 - - - - - - -
20/01:00am - SW 12 15 1017.7 - 0.0 - - - - - - -

Other Formats:

Comma delimited format used in spreadsheet applications
http://www.bom.gov.au/fwo/IDN60701/IDN60701.94598.axf

JavaScript Object Notation format (JSON) in row-major order
http://www.bom.gov.au/fwo/IDN60701/IDN60701.94598.json